Time;durP1;ratioP1;P1;durP2;ratioP2;P2;SDS_P1;SDS_P2;PMS_P1;PMS_P2;Temp;Humidity;BMP_temperature;BMP_pressure;BME280_temperature;BME280_humidity;BME280_pressure;Samples;Min_cycle;Max_cycle;Signal;HPM_P1;HPM_P2
2021/09/01 00:00:23;;;;;;;8.53;5.00;;;13.20;99.90;;;;;;4163508;28;20257;-77
2021/09/01 00:02:25;;;;;;;9.07;5.60;;;13.20;99.90;;;;;;4148422;28;20215;-79
2021/09/01 00:04:27;;;;;;;9.50;5.40;;;13.20;99.90;;;;;;4148772;28;20215;-77
2021/09/01 00:06:29;;;;;;;8.60;4.87;;;13.20;99.90;;;;;;4163331;28;20207;-77
2021/09/01 00:08:32;;;;;;;10.47;5.50;;;13.20;99.90;;;;;;4149680;28;20223;-76
2021/09/01 00:10:34;;;;;;;8.60;5.03;;;13.10;99.90;;;;;;4146649;28;20239;-78
2021/09/01 00:12:37;;;;;;;9.87;5.93;;;13.10;99.90;;;;;;4149009;28;20208;-78
2021/09/01 00:14:38;;;;;;;6.93;4.93;;;13.10;99.90;;;;;;4149677;28;20206;-76
2021/09/01 00:16:40;;;;;;;8.53;5.03;;;13.10;99.90;;;;;;4160780;28;20305;-77
2021/09/01 00:18:42;;;;;;;10.27;5.17;;;13.00;99.90;;;;;;4156318;28;20206;-78
2021/09/01 00:20:44;;;;;;;7.67;4.80;;;13.00;99.90;;;;;;4161074;28;20217;-78
2021/09/01 00:22:45;;;;;;;8.87;4.97;;;13.00;99.90;;;;;;4158037;28;20218;-77
2021/09/01 00:24:48;;;;;;;9.17;5.47;;;13.00;99.90;;;;;;4158140;28;20279;-77
2021/09/01 00:26:50;;;;;;;8.60;5.33;;;12.90;99.90;;;;;;4159633;28;20214;-77
2021/09/01 00:28:52;;;;;;;8.77;5.27;;;12.90;99.90;;;;;;4151196;28;20285;-78
2021/09/01 00:30:54;;;;;;;7.73;5.00;;;12.90;99.90;;;;;;4147128;28;20261;-79
2021/09/01 00:32:55;;;;;;;10.07;4.90;;;12.80;99.90;;;;;;4153633;28;20264;-78
2021/09/01 00:34:57;;;;;;;8.40;5.13;;;12.80;99.90;;;;;;4147503;28;20219;-77
2021/09/01 00:36:59;;;;;;;8.40;5.50;;;12.80;99.90;;;;;;4156205;28;20214;-77
2021/09/01 00:39:00;;;;;;;7.23;4.70;;;12.70;99.90;;;;;;4146672;28;20468;-78
2021/09/01 00:41:04;;;;;;;9.53;5.30;;;12.70;99.90;;;;;;4147000;28;20262;-78
2021/09/01 00:43:05;;;;;;;9.27;5.47;;;12.70;99.90;;;;;;4151757;28;20211;-77
2021/09/01 00:45:08;;;;;;;8.37;5.57;;;12.70;99.90;;;;;;4159666;28;20263;-76
2021/09/01 00:47:10;;;;;;;8.40;5.20;;;12.70;99.90;;;;;;4147682;28;20561;-77
2021/09/01 00:49:12;;;;;;;9.40;5.07;;;12.60;99.90;;;;;;4146845;28;20229;-77
2021/09/01 00:51:15;;;;;;;9.13;5.50;;;12.60;99.90;;;;;;4147693;28;20292;-77
2021/09/01 00:53:18;;;;;;;9.23;5.30;;;12.60;99.90;;;;;;4155686;28;20210;-77
2021/09/01 00:55:23;;;;;;;9.13;5.03;;;12.60;99.90;;;;;;4154260;28;20591;-77
2021/09/01 00:57:26;;;;;;;10.17;5.80;;;12.60;99.90;;;;;;4146493;28;20241;-78
2021/09/01 00:59:30;;;;;;;9.43;5.43;;;12.50;99.90;;;;;;4154395;28;20706;-76
2021/09/01 01:01:31;;;;;;;10.93;5.33;;;12.50;99.90;;;;;;4159290;28;20218;-77
2021/09/01 01:03:33;;;;;;;8.83;5.10;;;12.50;99.90;;;;;;4157427;28;20259;-78
2021/09/01 01:05:35;;;;;;;8.87;5.73;;;12.50;99.90;;;;;;4162474;28;20236;-79
2021/09/01 01:07:37;;;;;;;8.77;5.20;;;12.50;99.90;;;;;;4155055;28;20207;-77
2021/09/01 01:09:40;;;;;;;8.83;5.83;;;12.40;99.90;;;;;;4153863;28;20257;-80
2021/09/01 01:12:03;;;;;;;8.33;5.20;;;12.40;99.90;;;;;;4158380;28;20269;-79
2021/09/01 01:14:06;;;;;;;8.30;5.27;;;12.40;99.90;;;;;;4149977;28;20209;-80
2021/09/01 01:16:07;;;;;;;9.47;5.93;;;12.40;99.90;;;;;;4150264;28;20213;-79
2021/09/01 01:18:11;;;;;;;9.77;5.93;;;12.40;99.90;;;;;;4160857;28;20242;-78
2021/09/01 01:20:13;;;;;;;11.17;5.77;;;12.40;99.90;;;;;;4156680;28;20233;-79
2021/09/01 01:22:16;;;;;;;10.73;5.97;;;12.40;99.90;;;;;;4158394;28;20206;-79
2021/09/01 01:24:18;;;;;;;10.43;6.50;;;12.30;99.90;;;;;;4153097;28;20241;-78
2021/09/01 01:26:21;;;;;;;10.77;6.17;;;12.30;99.90;;;;;;4151614;28;20284;-79
2021/09/01 01:28:23;;;;;;;13.23;6.10;;;12.30;99.90;;;;;;4167590;28;20236;-79
2021/09/01 01:30:24;;;;;;;9.73;6.10;;;12.30;99.90;;;;;;4163807;28;20707;-78
2021/09/01 01:32:26;;;;;;;10.13;5.73;;;12.30;99.90;;;;;;4166355;28;20213;-79
2021/09/01 01:34:28;;;;;;;9.47;5.70;;;12.30;99.90;;;;;;4167694;28;20209;-78
2021/09/01 01:36:29;;;;;;;10.30;5.93;;;12.30;99.90;;;;;;4160974;28;20221;-77
2021/09/01 01:38:31;;;;;;;8.93;5.40;;;12.20;99.90;;;;;;4160256;28;20217;-79
2021/09/01 01:40:35;;;;;;;9.57;5.70;;;12.20;99.90;;;;;;4155486;28;20230;-79
2021/09/01 01:42:42;;;;;;;11.10;6.20;;;12.20;99.90;;;;;;4161798;28;20272;-78
2021/09/01 01:44:44;;;;;;;9.83;6.17;;;12.20;99.90;;;;;;4160251;28;20205;-79
2021/09/01 01:46:45;;;;;;;10.70;6.27;;;12.10;99.90;;;;;;4152085;28;20222;-78
2021/09/01 01:48:49;;;;;;;11.33;6.30;;;12.20;99.90;;;;;;4152738;28;20745;-78
2021/09/01 01:50:51;;;;;;;12.47;6.47;;;12.10;99.90;;;;;;4162383;28;20236;-78
2021/09/01 01:52:52;;;;;;;12.13;6.90;;;12.10;99.90;;;;;;4168324;28;20650;-78
2021/09/01 01:54:54;;;;;;;10.43;5.87;;;12.10;99.90;;;;;;4162153;28;20213;-78
2021/09/01 01:56:56;;;;;;;11.67;6.13;;;12.10;99.90;;;;;;4170106;28;20213;-79
2021/09/01 01:58:59;;;;;;;10.60;6.17;;;12.10;99.90;;;;;;4173099;28;20218;-79
2021/09/01 02:01:00;;;;;;;11.13;6.50;;;12.00;99.90;;;;;;4174203;28;20228;-79
2021/09/01 02:03:02;;;;;;;14.63;6.60;;;12.00;99.90;;;;;;4173836;28;20210;-79
2021/09/01 02:05:05;;;;;;;10.80;6.93;;;12.00;99.90;;;;;;4174153;28;20212;-79
2021/09/01 02:07:06;;;;;;;11.43;6.33;;;12.00;99.90;;;;;;4172961;28;20215;-79
2021/09/01 02:09:08;;;;;;;10.53;6.20;;;11.90;99.90;;;;;;4162442;28;20613;-78
2021/09/01 02:11:10;;;;;;;9.53;6.20;;;11.90;99.90;;;;;;4158074;28;20214;-78
2021/09/01 02:13:13;;;;;;;11.30;6.53;;;11.90;99.90;;;;;;4161968;28;20255;-79
2021/09/01 02:15:16;;;;;;;12.00;6.40;;;11.90;99.90;;;;;;4158825;28;20264;-79
2021/09/01 02:17:17;;;;;;;9.00;5.93;;;11.90;99.90;;;;;;4169260;28;20741;-78
2021/09/01 02:19:19;;;;;;;12.03;6.57;;;11.90;99.90;;;;;;4161967;28;20224;-78
2021/09/01 02:21:21;;;;;;;11.77;6.83;;;11.80;99.90;;;;;;4165078;28;20239;-79
2021/09/01 02:23:23;;;;;;;10.67;6.30;;;11.80;99.90;;;;;;4155923;28;20662;-78
2021/09/01 02:25:26;;;;;;;13.47;6.50;;;11.80;99.90;;;;;;4159908;28;20206;-78
2021/09/01 02:27:28;;;;;;;9.53;6.03;;;11.80;99.90;;;;;;4160990;28;20245;-78
2021/09/01 02:29:30;;;;;;;10.40;6.10;;;11.80;99.90;;;;;;4160405;28;20234;-78
2021/09/01 02:31:33;;;;;;;10.20;6.10;;;11.70;99.90;;;;;;4165156;28;20638;-77
2021/09/01 02:33:34;;;;;;;9.63;5.60;;;11.70;99.90;;;;;;4167604;28;20275;-79
2021/09/01 02:35:36;;;;;;;10.53;6.37;;;11.70;99.90;;;;;;4167437;28;20224;-79
2021/09/01 02:37:38;;;;;;;9.77;5.73;;;11.60;99.90;;;;;;4156760;28;20220;-78
2021/09/01 02:39:39;;;;;;;10.13;6.67;;;11.60;99.90;;;;;;4170249;28;20247;-79
2021/09/01 02:41:41;;;;;;;11.90;7.03;;;11.60;99.90;;;;;;4163771;28;20238;-79
2021/09/01 02:43:43;;;;;;;11.80;6.13;;;11.50;99.90;;;;;;4166270;28;20209;-79
2021/09/01 02:45:45;;;;;;;10.80;6.53;;;11.50;99.90;;;;;;4164212;28;20208;-79
2021/09/01 02:47:48;;;;;;;13.20;7.10;;;11.50;99.90;;;;;;4167267;28;20217;-79
2021/09/01 02:49:50;;;;;;;11.93;6.77;;;11.50;99.90;;;;;;4167357;28;20443;-79
2021/09/01 02:51:51;;;;;;;12.43;6.47;;;11.50;99.90;;;;;;4165987;28;20208;-79
2021/09/01 02:53:53;;;;;;;11.20;7.10;;;11.40;99.90;;;;;;4156185;28;20241;-77
2021/09/01 02:55:55;;;;;;;10.50;6.57;;;11.40;99.90;;;;;;4167023;28;20772;-79
2021/09/01 02:57:56;;;;;;;10.50;6.50;;;11.40;99.90;;;;;;4163611;28;20665;-78
2021/09/01 02:59:58;;;;;;;14.37;7.33;;;11.40;99.90;;;;;;4156052;28;20655;-79
2021/09/01 03:02:00;;;;;;;12.23;6.83;;;11.40;99.90;;;;;;4166804;28;20212;-79
2021/09/01 03:04:03;;;;;;;15.23;7.03;;;11.40;99.90;;;;;;4155236;28;20635;-79
2021/09/01 03:06:04;;;;;;;10.93;6.70;;;11.40;99.90;;;;;;4150333;28;20212;-79
2021/09/01 03:08:08;;;;;;;12.87;7.27;;;11.30;99.90;;;;;;4150546;28;20218;-80
2021/09/01 03:10:10;;;;;;;11.50;7.07;;;11.40;99.90;;;;;;4164986;28;20240;-78
2021/09/01 03:12:11;;;;;;;12.13;7.70;;;11.30;99.90;;;;;;4155610;28;20210;-79
2021/09/01 03:14:13;;;;;;;12.63;7.27;;;11.30;99.90;;;;;;4157959;28;20747;-78
2021/09/01 03:16:15;;;;;;;12.37;7.50;;;11.30;99.90;;;;;;4161060;28;20568;-78
2021/09/01 03:18:17;;;;;;;13.27;7.60;;;11.30;99.90;;;;;;4161518;28;20644;-79
2021/09/01 03:20:20;;;;;;;10.83;7.20;;;11.20;99.90;;;;;;4158194;28;20286;-80
2021/09/01 03:22:22;;;;;;;12.53;7.33;;;11.30;99.90;;;;;;4158253;28;20670;-78
2021/09/01 03:24:23;;;;;;;14.90;8.07;;;11.30;99.90;;;;;;4164646;28;20216;-79
2021/09/01 03:26:26;;;;;;;16.80;8.27;;;11.20;99.90;;;;;;4155734;28;20234;-79
2021/09/01 03:28:28;;;;;;;13.97;8.23;;;11.20;99.90;;;;;;4153329;28;20685;-79
2021/09/01 03:30:30;;;;;;;13.10;7.03;;;11.20;99.90;;;;;;4165457;28;20289;-79
2021/09/01 03:32:32;;;;;;;11.63;7.30;;;11.20;99.90;;;;;;4159789;28;20209;-78
2021/09/01 03:34:34;;;;;;;12.30;7.20;;;11.20;99.90;;;;;;4157886;28;20265;-79
2021/09/01 03:36:37;;;;;;;13.20;7.97;;;11.20;99.90;;;;;;4158586;28;20212;-79
2021/09/01 03:38:38;;;;;;;10.87;7.17;;;11.20;99.90;;;;;;4164467;28;20619;-79
2021/09/01 03:40:40;;;;;;;13.33;7.50;;;11.10;99.90;;;;;;4165954;28;20705;-79
2021/09/01 03:42:42;;;;;;;13.20;7.70;;;11.10;99.90;;;;;;4172980;28;20278;-79
2021/09/01 03:44:44;;;;;;;11.87;7.17;;;11.10;99.90;;;;;;4174389;28;20211;-77
2021/09/01 03:46:45;;;;;;;13.17;7.50;;;11.10;99.90;;;;;;4164344;28;20217;-76
2021/09/01 03:48:47;;;;;;;14.80;7.70;;;11.10;99.90;;;;;;4166162;28;20394;-80
2021/09/01 03:50:49;;;;;;;11.83;7.37;;;11.10;99.90;;;;;;4167721;28;20235;-79
2021/09/01 03:52:52;;;;;;;12.83;7.37;;;11.10;99.90;;;;;;4162093;28;20244;-78
2021/09/01 03:54:54;;;;;;;13.37;8.07;;;11.10;99.90;;;;;;4154181;28;20282;-78
2021/09/01 03:56:55;;;;;;;13.10;8.03;;;11.10;99.90;;;;;;4163969;28;20213;-78
2021/09/01 03:58:57;;;;;;;15.77;8.37;;;11.10;99.90;;;;;;4156151;28;20694;-78
2021/09/01 04:00:59;;;;;;;12.03;7.27;;;11.00;99.90;;;;;;4158977;28;20701;-79
2021/09/01 04:03:00;;;;;;;13.23;7.60;;;11.00;99.90;;;;;;4151114;28;20264;-79
2021/09/01 04:05:03;;;;;;;12.27;7.53;;;11.10;99.90;;;;;;4154066;28;20272;-79
2021/09/01 04:07:05;;;;;;;14.03;8.10;;;11.00;99.90;;;;;;4157905;28;20206;-78
2021/09/01 04:09:08;;;;;;;12.43;7.57;;;11.10;99.90;;;;;;4157678;28;20324;-78
2021/09/01 04:11:10;;;;;;;13.30;7.73;;;11.00;99.90;;;;;;4160961;28;20235;-78
2021/09/01 04:13:12;;;;;;;12.50;7.67;;;11.00;99.90;;;;;;4154617;28;20209;-79
2021/09/01 04:15:14;;;;;;;14.93;8.43;;;11.00;99.90;;;;;;4160950;28;20217;-77
2021/09/01 04:17:15;;;;;;;12.60;7.83;;;11.10;99.90;;;;;;4145643;28;20216;-76
2021/09/01 04:19:17;;;;;;;14.60;7.90;;;11.10;99.90;;;;;;4160382;28;20332;-75
2021/09/01 04:21:19;;;;;;;14.53;8.03;;;11.10;99.90;;;;;;4164076;28;20211;-76
2021/09/01 04:23:21;;;;;;;13.80;8.00;;;11.20;99.90;;;;;;4162877;28;20206;-78
2021/09/01 04:25:24;;;;;;;13.30;8.20;;;11.20;99.90;;;;;;4163159;28;20212;-76
2021/09/01 04:27:26;;;;;;;13.53;8.30;;;11.20;99.90;;;;;;4148449;28;20585;-75
2021/09/01 04:29:27;;;;;;;12.47;7.80;;;11.20;99.90;;;;;;4162301;28;20637;-76
2021/09/01 04:31:29;;;;;;;14.73;8.40;;;11.30;99.90;;;;;;4158522;28;20213;-76
2021/09/01 04:33:31;;;;;;;13.53;8.30;;;11.30;99.90;;;;;;4154816;28;20210;-77
2021/09/01 04:35:33;;;;;;;13.70;8.50;;;11.40;99.90;;;;;;4151549;28;20209;-76
2021/09/01 04:37:35;;;;;;;15.53;9.20;;;11.40;99.90;;;;;;4151260;28;20210;-76
2021/09/01 04:39:36;;;;;;;15.80;8.93;;;11.50;99.90;;;;;;4157180;28;20226;-76
2021/09/01 04:41:39;;;;;;;16.13;9.20;;;11.50;99.90;;;;;;4163437;28;20291;-79
2021/09/01 04:43:41;;;;;;;14.23;9.07;;;11.50;99.90;;;;;;4164343;28;20251;-77
2021/09/01 04:45:43;;;;;;;15.17;9.80;;;11.60;99.90;;;;;;4155583;28;20213;-78
2021/09/01 04:47:45;;;;;;;18.00;9.97;;;11.70;99.90;;;;;;4156606;28;20255;-75
2021/09/01 04:49:46;;;;;;;27.37;13.00;;;11.70;99.90;;;;;;4155505;28;20227;-76
2021/09/01 04:51:48;;;;;;;24.13;13.27;;;11.80;99.90;;;;;;4153557;28;20222;-75
2021/09/01 04:53:50;;;;;;;28.80;13.93;;;11.90;99.90;;;;;;4155392;28;20252;-76
2021/09/01 04:55:52;;;;;;;27.27;13.73;;;12.00;99.90;;;;;;4150785;28;20268;-77
2021/09/01 04:57:55;;;;;;;25.13;12.73;;;12.00;99.90;;;;;;4151772;28;20213;-78
2021/09/01 04:59:57;;;;;;;23.90;12.70;;;12.00;99.90;;;;;;4157728;28;20256;-76
2021/09/01 05:01:58;;;;;;;22.63;12.27;;;12.10;99.90;;;;;;4155369;28;20217;-76
2021/09/01 05:04:00;;;;;;;27.07;13.47;;;12.10;99.90;;;;;;4158377;28;20210;-76
2021/09/01 05:06:02;;;;;;;24.27;13.43;;;12.20;99.90;;;;;;4146153;28;20218;-78
2021/09/01 05:08:04;;;;;;;24.97;12.60;;;12.20;99.90;;;;;;4146809;28;20216;-79
2021/09/01 05:10:07;;;;;;;22.63;12.70;;;12.20;99.90;;;;;;4149839;28;20244;-76
2021/09/01 05:12:09;;;;;;;27.33;14.03;;;12.20;99.90;;;;;;4161207;28;20284;-77
2021/09/01 05:14:12;;;;;;;30.57;15.00;;;12.30;99.90;;;;;;4156593;28;20241;-78
2021/09/01 05:16:14;;;;;;;34.07;16.23;;;12.30;99.90;;;;;;4154791;28;20268;-75
2021/09/01 05:18:15;;;;;;;39.63;16.77;;;12.40;99.90;;;;;;4156179;28;20211;-76
2021/09/01 05:20:17;;;;;;;36.63;17.17;;;12.40;99.90;;;;;;4152182;28;20240;-78
2021/09/01 05:22:22;;;;;;;30.90;15.33;;;12.50;99.90;;;;;;4159515;28;20222;-76
2021/09/01 05:24:33;;;;;;;32.87;16.27;;;12.50;99.90;;;;;;4161093;28;20222;-79
2021/09/01 05:26:35;;;;;;;29.07;16.10;;;12.60;99.90;;;;;;4167220;28;20217;-78
2021/09/01 05:28:40;;;;;;;29.33;15.23;;;12.60;99.90;;;;;;4164207;28;20210;-78
2021/09/01 05:30:44;;;;;;;26.80;14.80;;;12.70;99.90;;;;;;4165862;28;20229;-77
2021/09/01 05:32:48;;;;;;;25.40;14.53;;;12.70;99.90;;;;;;4169830;28;20688;-79
2021/09/01 05:34:52;;;;;;;29.20;15.93;;;12.70;99.90;;;;;;4161746;28;20218;-80
2021/09/01 05:36:54;;;;;;;28.90;15.23;;;12.80;99.90;;;;;;4164786;28;20271;-80
2021/09/01 05:38:57;;;;;;;28.83;15.43;;;12.80;99.90;;;;;;4166972;28;20214;-81
2021/09/01 05:41:00;;;;;;;25.60;14.47;;;12.80;99.90;;;;;;4170152;28;20294;-78
2021/09/01 05:43:02;;;;;;;27.23;14.60;;;12.90;99.90;;;;;;4165191;28;20209;-77
2021/09/01 05:45:06;;;;;;;27.93;15.07;;;12.90;99.90;;;;;;4170280;28;20214;-79
2021/09/01 05:47:10;;;;;;;30.50;15.50;;;12.90;99.90;;;;;;4165170;28;20215;-78
2021/09/01 05:49:13;;;;;;;25.77;14.77;;;12.90;99.90;;;;;;4165207;28;20230;-77
2021/09/01 05:51:15;;;;;;;29.90;15.70;;;13.00;99.90;;;;;;4156707;28;20294;-77
2021/09/01 05:53:17;;;;;;;29.53;15.23;;;13.00;99.90;;;;;;4156945;28;20276;-78
2021/09/01 05:55:21;;;;;;;29.10;15.73;;;13.00;99.90;;;;;;4154847;28;20272;-79
2021/09/01 05:57:34;;;;;;;28.03;15.23;;;13.00;99.90;;;;;;4159023;28;20214;-80
2021/09/01 05:59:46;;;;;;;28.97;15.60;;;13.10;99.90;;;;;;4162485;28;20238;-79
2021/09/01 06:02:04;;;;;;;31.60;15.60;;;13.20;99.90;;;;;;4156005;28;20215;-78
2021/09/01 06:04:09;;;;;;;30.00;16.33;;;13.20;99.90;;;;;;4160883;28;20299;-78
2021/09/01 06:06:16;;;;;;;27.00;15.93;;;13.20;99.90;;;;;;4161402;28;20657;-79
2021/09/01 06:08:23;;;;;;;29.60;16.63;;;13.30;99.90;;;;;;4163000;28;20688;-82
2021/09/01 06:10:28;;;;;;;29.60;15.87;;;13.30;99.90;;;;;;4166345;28;20291;-77
2021/09/01 06:12:31;;;;;;;35.20;16.33;;;13.40;99.90;;;;;;4155762;28;20223;-80
2021/09/01 06:14:33;;;;;;;36.00;17.70;;;13.40;99.90;;;;;;4158767;28;20261;-77
2021/09/01 06:16:34;;;;;;;34.27;16.83;;;13.40;99.90;;;;;;4155652;28;20221;-77
2021/09/01 06:18:36;;;;;;;38.83;17.80;;;13.50;99.90;;;;;;4159923;28;20215;-79
2021/09/01 06:20:40;;;;;;;33.47;17.03;;;13.50;99.90;;;;;;4157071;28;20238;-77
2021/09/01 06:22:42;;;;;;;34.80;18.17;;;13.60;99.90;;;;;;4162357;28;20237;-77
2021/09/01 06:24:43;;;;;;;33.30;16.80;;;13.60;99.90;;;;;;4155111;28;20770;-78
2021/09/01 06:26:45;;;;;;;32.17;18.03;;;13.80;99.90;;;;;;4157131;28;20207;-77
2021/09/01 06:28:47;;;;;;;34.77;17.73;;;13.80;99.90;;;;;;4166872;28;20240;-78
2021/09/01 06:30:49;;;;;;;32.03;18.00;;;13.90;99.90;;;;;;4160351;28;20234;-78
2021/09/01 06:32:51;;;;;;;34.03;17.47;;;13.90;99.90;;;;;;4162725;28;20671;-77
2021/09/01 06:34:53;;;;;;;31.53;17.80;;;13.90;99.90;;;;;;4164614;28;20289;-76
2021/09/01 06:36:56;;;;;;;31.07;17.80;;;14.00;99.90;;;;;;4154731;28;20213;-78
2021/09/01 06:38:58;;;;;;;34.77;18.07;;;14.10;99.90;;;;;;4162600;28;20288;-76
2021/09/01 06:40:59;;;;;;;33.80;17.83;;;14.10;99.90;;;;;;4164499;28;20268;-78
2021/09/01 06:43:02;;;;;;;35.03;18.67;;;14.20;99.90;;;;;;4167365;28;20207;-78
2021/09/01 06:45:04;;;;;;;54.57;21.60;;;14.20;99.90;;;;;;4165059;28;20241;-78
2021/09/01 06:47:05;;;;;;;41.37;18.50;;;14.30;99.90;;;;;;4157188;28;20210;-79
2021/09/01 06:49:07;;;;;;;38.30;19.57;;;14.30;99.90;;;;;;4152871;28;20257;-78
2021/09/01 06:51:09;;;;;;;38.87;19.97;;;14.40;99.90;;;;;;4160387;28;20236;-78
2021/09/01 06:53:12;;;;;;;37.20;19.50;;;14.40;99.90;;;;;;4159865;28;20211;-78
2021/09/01 06:55:15;;;;;;;39.17;19.33;;;14.40;99.90;;;;;;4157686;28;20213;-76
2021/09/01 06:57:17;;;;;;;47.07;21.07;;;14.50;99.90;;;;;;4153086;28;20203;-77
2021/09/01 06:59:19;;;;;;;48.23;20.93;;;14.50;99.90;;;;;;4153652;28;20253;-77
2021/09/01 07:01:20;;;;;;;49.37;22.33;;;14.60;99.90;;;;;;4153750;28;20240;-76
2021/09/01 07:03:22;;;;;;;47.27;22.53;;;14.60;99.90;;;;;;4151099;28;20783;-77
2021/09/01 07:05:24;;;;;;;40.00;20.50;;;14.60;99.90;;;;;;4144756;28;20213;-79
2021/09/01 07:07:25;;;;;;;44.43;21.03;;;14.70;99.90;;;;;;4152960;28;20215;-78
2021/09/01 07:09:29;;;;;;;44.50;21.03;;;14.70;99.90;;;;;;4187012;22;20226;-79
2021/09/01 07:11:30;;;;;;;41.13;20.07;;;14.70;99.90;;;;;;4196338;28;20226;-79
2021/09/01 07:13:32;;;;;;;39.83;19.37;;;14.80;99.90;;;;;;4196866;28;20240;-78
2021/09/01 07:15:34;;;;;;;36.23;19.40;;;14.80;99.90;;;;;;4196686;28;20343;-79
2021/09/01 07:17:36;;;;;;;41.30;19.00;;;14.80;99.90;;;;;;4189876;28;20222;-79
2021/09/01 07:19:38;;;;;;;37.07;18.03;;;14.90;99.90;;;;;;4194073;28;20237;-78
2021/09/01 07:21:40;;;;;;;44.10;19.40;;;15.00;99.90;;;;;;4197169;28;20399;-78
2021/09/01 07:23:42;;;;;;;39.17;19.67;;;15.00;99.90;;;;;;4192655;28;20297;-78
2021/09/01 07:25:45;;;;;;;35.53;17.93;;;15.00;99.90;;;;;;4188570;28;20215;-78
2021/09/01 07:27:47;;;;;;;36.97;20.40;;;15.10;99.90;;;;;;4196731;28;20205;-78
2021/09/01 07:29:48;;;;;;;37.93;19.40;;;15.10;99.90;;;;;;4198195;28;20289;-77
2021/09/01 07:31:50;;;;;;;37.03;19.37;;;15.20;99.90;;;;;;4198237;28;20231;-79
2021/09/01 07:33:52;;;;;;;37.23;19.40;;;15.20;99.90;;;;;;4200855;28;20218;-79
2021/09/01 07:35:53;;;;;;;35.87;18.13;;;15.20;99.90;;;;;;4201727;28;20219;-78
2021/09/01 07:37:55;;;;;;;39.80;18.83;;;15.20;99.90;;;;;;4203209;28;20223;-79
2021/09/01 07:39:57;;;;;;;37.10;19.07;;;15.30;99.90;;;;;;4201861;28;20234;-79
2021/09/01 07:42:00;;;;;;;40.20;19.53;;;15.30;99.90;;;;;;4203690;28;20209;-79
2021/09/01 07:44:02;;;;;;;42.10;20.30;;;15.40;99.90;;;;;;4196798;28;20214;-79
2021/09/01 07:46:04;;;;;;;45.83;21.77;;;15.40;99.90;;;;;;4198316;28;20283;-79
2021/09/01 07:48:06;;;;;;;47.40;22.67;;;15.40;99.90;;;;;;4196112;28;20242;-79
2021/09/01 07:50:09;;;;;;;45.73;21.70;;;15.40;99.90;;;;;;4199568;28;20238;-80
2021/09/01 07:52:12;;;;;;;46.40;22.40;;;15.50;99.90;;;;;;4201483;28;20546;-79
2021/09/01 07:54:14;;;;;;;44.83;21.27;;;15.50;99.90;;;;;;4195661;28;20275;-80
2021/09/01 07:56:16;;;;;;;44.93;21.70;;;15.50;99.90;;;;;;4195833;28;20276;-79
2021/09/01 07:58:19;;;;;;;46.20;21.57;;;15.50;99.90;;;;;;4199571;28;20268;-79
2021/09/01 08:00:21;;;;;;;43.23;20.37;;;15.50;99.90;;;;;;4199211;28;20227;-79
2021/09/01 08:02:23;;;;;;;39.07;20.27;;;15.50;99.90;;;;;;4204161;28;20208;-79
2021/09/01 08:04:24;;;;;;;40.37;20.30;;;15.60;99.90;;;;;;4199165;28;20225;-79
2021/09/01 08:06:27;;;;;;;44.07;21.63;;;15.60;99.90;;;;;;4198649;28;20600;-79
2021/09/01 08:08:29;;;;;;;39.17;19.73;;;15.60;99.90;;;;;;4203389;28;20226;-79
2021/09/01 08:10:31;;;;;;;40.90;21.80;;;15.50;99.90;;;;;;4197572;28;20240;-79
2021/09/01 08:12:33;;;;;;;39.63;21.27;;;15.50;99.90;;;;;;4202179;28;20290;-79
2021/09/01 08:14:37;;;;;;;40.77;20.30;;;15.50;99.90;;;;;;4203084;28;20678;-79
2021/09/01 08:16:38;;;;;;;41.57;21.23;;;15.60;99.90;;;;;;4201939;28;20213;-79
2021/09/01 08:18:40;;;;;;;39.57;20.30;;;15.60;99.90;;;;;;4199530;28;20675;-80
2021/09/01 08:20:42;;;;;;;42.13;20.60;;;15.60;99.90;;;;;;4203150;28;20228;-79
2021/09/01 08:22:44;;;;;;;41.13;21.00;;;15.60;99.90;;;;;;4203662;28;20296;-79
2021/09/01 08:24:46;;;;;;;45.13;22.30;;;15.60;99.90;;;;;;4201457;28;20271;-79
2021/09/01 08:26:48;;;;;;;43.57;21.37;;;15.60;99.90;;;;;;4187438;28;20425;-79
2021/09/01 08:28:51;;;;;;;42.87;21.57;;;15.60;99.90;;;;;;4189390;28;21647;-79
2021/09/01 08:30:54;;;;;;;44.23;21.17;;;15.50;99.90;;;;;;4196188;28;20272;-79
2021/09/01 08:32:56;;;;;;;41.03;21.93;;;15.50;99.90;;;;;;4195267;28;20216;-79
2021/09/01 08:34:57;;;;;;;41.40;21.60;;;15.50;99.90;;;;;;4192822;28;20228;-79
2021/09/01 08:37:00;;;;;;;43.27;22.20;;;15.60;99.90;;;;;;4190237;28;20224;-79
2021/09/01 08:39:02;;;;;;;44.27;22.67;;;15.60;99.90;;;;;;4192320;28;20243;-79
2021/09/01 08:41:03;;;;;;;45.43;21.87;;;15.60;99.90;;;;;;4192020;28;20228;-79
2021/09/01 08:43:07;;;;;;;45.20;22.63;;;15.60;99.90;;;;;;4194378;28;20210;-79
2021/09/01 08:45:09;;;;;;;45.00;22.10;;;15.50;99.90;;;;;;4190215;28;20216;-79
2021/09/01 08:47:12;;;;;;;40.67;21.07;;;15.60;99.90;;;;;;4189722;28;20216;-79
2021/09/01 08:49:14;;;;;;;39.40;21.60;;;15.60;99.90;;;;;;4190131;28;20232;-79
2021/09/01 08:51:16;;;;;;;43.50;21.93;;;15.70;99.90;;;;;;4196409;28;20247;-79
2021/09/01 08:53:18;;;;;;;40.83;21.30;;;15.70;99.90;;;;;;4190238;28;20213;-79
2021/09/01 08:55:19;;;;;;;36.63;20.47;;;15.70;99.90;;;;;;4189486;28;20212;-79
2021/09/01 08:57:21;;;;;;;47.90;21.33;;;15.80;99.90;;;;;;4194403;28;20217;-79
2021/09/01 08:59:23;;;;;;;38.43;21.17;;;15.90;99.90;;;;;;4194327;28;20223;-79
2021/09/01 09:01:42;;;;;;;40.30;20.67;;;15.90;99.90;;;;;;4191641;28;20266;-79
2021/09/01 09:03:54;;;;;;;37.70;20.30;;;16.00;99.90;;;;;;4191609;28;20220;-79
2021/09/01 09:06:04;;;;;;;35.63;20.10;;;16.00;99.90;;;;;;4186991;28;20305;-79
2021/09/01 09:08:11;;;;;;;35.77;19.13;;;16.10;99.90;;;;;;4198510;28;20512;-80
2021/09/01 09:10:29;;;;;;;36.83;19.50;;;16.10;99.90;;;;;;4197346;28;20235;-80
2021/09/01 09:12:32;;;;;;;37.70;18.60;;;16.10;99.90;;;;;;4191965;28;20640;-79
2021/09/01 09:14:37;;;;;;;37.03;19.87;;;16.20;99.90;;;;;;4190078;28;20214;-79
2021/09/01 09:16:39;;;;;;;36.23;19.23;;;16.20;99.90;;;;;;4192132;28;20205;-80
2021/09/01 09:18:43;;;;;;;42.10;19.87;;;16.30;99.90;;;;;;4186188;28;20206;-79
2021/09/01 09:20:46;;;;;;;37.13;19.33;;;16.30;99.90;;;;;;4189347;28;20237;-79
2021/09/01 09:22:51;;;;;;;34.80;18.43;;;16.40;99.90;;;;;;4191486;28;20638;-79
2021/09/01 09:25:04;;;;;;;31.00;17.20;;;16.60;99.90;;;;;;4189374;28;20263;-79
2021/09/01 09:27:06;;;;;;;30.80;17.00;;;16.60;99.90;;;;;;4190857;28;20209;-79
2021/09/01 09:29:10;;;;;;;36.63;17.83;;;16.60;99.90;;;;;;4192709;28;20244;-79
2021/09/01 09:31:12;;;;;;;34.70;18.50;;;16.70;99.90;;;;;;4192546;28;20234;-79
2021/09/01 09:33:15;;;;;;;34.30;17.20;;;16.70;99.90;;;;;;4187880;28;20244;-79
2021/09/01 09:35:17;;;;;;;31.70;17.83;;;16.70;99.90;;;;;;4191959;28;20291;-79
2021/09/01 09:37:20;;;;;;;36.53;18.33;;;16.80;99.90;;;;;;4195975;28;20218;-79
2021/09/01 09:39:37;;;;;;;34.87;18.10;;;16.90;99.90;;;;;;4212265;28;20221;-78
2021/09/01 09:41:39;;;;;;;33.03;18.20;;;17.00;99.90;;;;;;4206132;28;20201;-78
2021/09/01 09:43:40;;;;;;;31.27;17.87;;;17.10;99.90;;;;;;4192993;28;20226;-78
2021/09/01 09:45:43;;;;;;;30.73;17.37;;;17.20;99.90;;;;;;4195445;28;20216;-79
2021/09/01 09:47:49;;;;;;;32.87;17.60;;;17.20;99.90;;;;;;4196013;28;20245;-79
2021/09/01 09:50:08;;;;;;;34.60;17.80;;;17.10;99.90;;;;;;4194494;28;20295;-78
2021/09/01 09:52:16;;;;;;;34.47;18.47;;;17.20;99.90;;;;;;4196642;28;20777;-78
2021/09/01 09:54:20;;;;;;;31.40;17.07;;;17.30;99.90;;;;;;4192162;28;20248;-78
2021/09/01 09:56:26;;;;;;;30.40;17.80;;;17.30;99.90;;;;;;4192649;28;20598;-78
2021/09/01 09:58:28;;;;;;;31.07;17.70;;;17.30;99.90;;;;;;4194031;28;20272;-78
2021/09/01 10:00:31;;;;;;;32.77;18.43;;;17.40;99.90;;;;;;4193985;28;20249;-78
2021/09/01 10:02:33;;;;;;;36.07;18.30;;;17.50;99.90;;;;;;4192844;28;20215;-79
2021/09/01 10:04:38;;;;;;;31.77;17.60;;;17.60;99.90;;;;;;4192790;28;20268;-77
2021/09/01 10:06:41;;;;;;;31.40;16.77;;;17.60;99.90;;;;;;4196259;28;20690;-78
2021/09/01 10:08:43;;;;;;;29.00;16.27;;;17.70;99.90;;;;;;4193976;28;20216;-78
2021/09/01 10:10:46;;;;;;;33.77;17.27;;;17.70;99.90;;;;;;4187450;28;20272;-78
2021/09/01 10:12:49;;;;;;;27.43;16.70;;;17.90;99.90;;;;;;4193179;28;20239;-78
2021/09/01 10:14:52;;;;;;;31.43;16.37;;;18.00;99.90;;;;;;4193841;28;20697;-79
2021/09/01 10:17:00;;;;;;;25.73;15.43;;;18.10;99.90;;;;;;4191914;28;20219;-78
2021/09/01 10:19:08;;;;;;;25.83;15.17;;;18.10;99.90;;;;;;4191593;28;20210;-78
2021/09/01 10:21:10;;;;;;;28.67;15.23;;;18.20;99.90;;;;;;4189709;28;20663;-78
2021/09/01 10:23:12;;;;;;;27.40;15.33;;;18.40;99.90;;;;;;4194498;28;20621;-78
2021/09/01 10:25:34;;;;;;;27.67;15.47;;;18.40;99.90;;;;;;4195546;28;20260;-78
2021/09/01 10:27:37;;;;;;;26.10;14.67;;;18.40;99.90;;;;;;4195190;28;20221;-78